createdAt,value
2017-10-24T00:01:48.070Z,8.03
2017-10-24T00:04:15.824Z,4.17
2017-10-24T00:06:43.444Z,6.60
2017-10-24T00:09:11.161Z,4.60
2017-10-24T00:11:39.535Z,3.83
2017-10-24T00:14:07.987Z,4.33
2017-10-24T00:16:35.611Z,4.20
2017-10-24T00:19:03.247Z,5.00
2017-10-24T00:21:32.469Z,3.60
2017-10-24T00:24:00.120Z,4.20
2017-10-24T00:26:27.797Z,4.57
2017-10-24T00:28:55.729Z,3.93
2017-10-24T00:31:24.115Z,4.90
2017-10-24T00:33:51.764Z,4.77
2017-10-24T00:36:20.161Z,3.60
2017-10-24T00:38:47.824Z,7.37
2017-10-24T00:41:15.458Z,4.10
2017-10-24T00:43:43.885Z,3.40
2017-10-24T00:46:11.512Z,3.70
2017-10-24T00:48:39.176Z,8.13
2017-10-24T00:51:06.775Z,3.87
2017-10-24T00:53:34.423Z,4.27
2017-10-24T00:56:02.188Z,4.00
2017-10-24T00:58:29.836Z,4.77
2017-10-24T01:00:57.539Z,3.97
2017-10-24T01:03:25.156Z,3.60
2017-10-24T01:05:52.947Z,4.67
2017-10-24T01:08:20.591Z,4.23
2017-10-24T01:10:48.208Z,5.10
2017-10-24T01:13:15.865Z,5.30
2017-10-24T01:15:44.288Z,6.30
2017-10-24T01:18:11.977Z,3.57
2017-10-24T01:20:39.682Z,4.27
2017-10-24T01:23:07.429Z,5.93
2017-10-24T01:25:35.108Z,5.00
2017-10-24T01:28:02.826Z,4.60
2017-10-24T01:30:30.499Z,7.70
2017-10-24T01:32:59.510Z,6.57
2017-10-24T01:35:27.971Z,6.57
2017-10-24T01:37:57.328Z,6.80
2017-10-24T01:40:25.094Z,5.70
2017-10-24T01:42:52.819Z,11.07
2017-10-24T01:45:20.572Z,6.20
2017-10-24T01:47:48.287Z,5.63
2017-10-24T01:50:16.319Z,10.10
2017-10-24T01:52:43.991Z,5.07
2017-10-24T01:55:11.704Z,6.30
2017-10-24T01:57:40.191Z,8.27
2017-10-24T02:00:08.697Z,6.00
2017-10-24T02:02:36.386Z,9.77
2017-10-24T02:05:04.066Z,5.53
2017-10-24T02:07:31.784Z,9.40
2017-10-24T02:09:59.466Z,6.37
2017-10-24T02:12:27.170Z,8.63
2017-10-24T02:14:55.624Z,7.07
2017-10-24T02:17:24.271Z,9.37
2017-10-24T02:19:51.936Z,8.13
2017-10-24T02:22:19.632Z,8.73
2017-10-24T02:24:47.284Z,6.90
2017-10-24T02:27:14.948Z,8.00
2017-10-24T02:29:42.632Z,6.07
2017-10-24T02:32:10.280Z,8.50
2017-10-24T02:34:38.010Z,6.90
2017-10-24T02:37:05.648Z,8.30
2017-10-24T02:39:33.298Z,8.63
2017-10-24T02:42:00.963Z,7.23
2017-10-24T02:44:28.656Z,6.27
2017-10-24T02:46:56.319Z,7.00
2017-10-24T02:49:24.510Z,8.90
2017-10-24T02:51:53.126Z,7.57
2017-10-24T02:54:21.515Z,8.80
2017-10-24T02:56:49.169Z,9.90
2017-10-24T02:59:16.843Z,7.43
2017-10-24T03:01:44.470Z,7.10
2017-10-24T03:04:12.906Z,7.00
2017-10-24T03:06:40.555Z,6.97
2017-10-24T03:09:08.215Z,8.47
2017-10-24T03:11:35.908Z,8.43
2017-10-24T03:14:03.588Z,6.50
2017-10-24T03:16:31.993Z,6.40
2017-10-24T03:18:59.673Z,6.10
2017-10-24T03:21:27.362Z,6.57
2017-10-24T03:23:55.023Z,7.10
2017-10-24T03:26:22.680Z,6.73
2017-10-24T03:28:50.324Z,8.30
2017-10-24T03:31:18.003Z,6.90
2017-10-24T03:33:45.681Z,7.80
2017-10-24T03:36:13.320Z,5.70
2017-10-24T03:38:40.980Z,6.03
2017-10-24T03:41:08.639Z,7.23
2017-10-24T03:43:36.302Z,8.80
2017-10-24T03:46:03.924Z,12.43
2017-10-24T03:48:31.587Z,6.93
2017-10-24T03:50:59.199Z,6.73
2017-10-24T03:53:26.841Z,6.23
2017-10-24T03:55:54.473Z,8.07
2017-10-24T03:58:22.091Z,7.40
2017-10-24T04:00:50.507Z,6.20
2017-10-24T04:03:18.130Z,6.80
2017-10-24T04:05:46.552Z,6.60
2017-10-24T04:08:14.495Z,6.70
2017-10-24T04:10:42.618Z,7.90
2017-10-24T04:13:11.005Z,6.43
2017-10-24T04:15:38.694Z,6.20
2017-10-24T04:18:06.322Z,5.53
2017-10-24T04:20:33.987Z,5.87
2017-10-24T04:23:01.671Z,6.50
2017-10-24T04:25:30.104Z,6.20
2017-10-24T04:27:57.772Z,5.80
2017-10-24T04:30:25.418Z,7.47
2017-10-24T04:32:53.036Z,5.53
2017-10-24T04:35:20.744Z,7.27
2017-10-24T04:37:48.403Z,8.03
2017-10-24T04:40:16.074Z,5.70
2017-10-24T04:42:43.692Z,5.70
2017-10-24T04:45:11.380Z,7.20
2017-10-24T04:47:38.993Z,8.53
2017-10-24T04:50:06.615Z,5.67
2017-10-24T04:52:34.267Z,5.27
2017-10-24T04:55:01.892Z,5.07
2017-10-24T04:57:30.299Z,4.60
2017-10-24T04:59:57.926Z,4.03
2017-10-24T05:02:25.586Z,4.47
2017-10-24T05:04:53.244Z,4.40
2017-10-24T05:07:20.886Z,4.33
2017-10-24T05:09:49.272Z,5.13
2017-10-24T05:12:16.913Z,7.30
2017-10-24T05:14:45.307Z,4.27
2017-10-24T05:17:13.729Z,4.00
2017-10-24T05:19:41.395Z,3.90
2017-10-24T05:22:09.072Z,5.30
2017-10-24T05:24:36.699Z,4.67
2017-10-24T05:27:04.336Z,5.83
2017-10-24T05:29:31.979Z,3.67
2017-10-24T05:32:00.366Z,4.40
2017-10-24T05:34:28.022Z,4.03
2017-10-24T05:36:55.631Z,3.67
2017-10-24T05:39:23.281Z,7.07
2017-10-24T05:41:50.908Z,4.63
2017-10-24T05:44:18.541Z,3.40
2017-10-24T05:46:46.215Z,4.30
2017-10-24T05:49:13.840Z,3.60
2017-10-24T05:51:41.500Z,5.07
2017-10-24T05:54:09.985Z,2.90
2017-10-24T05:56:37.608Z,3.50
2017-10-24T05:59:05.260Z,3.93
2017-10-24T06:01:32.886Z,3.40
2017-10-24T06:04:01.290Z,5.40
2017-10-24T06:06:28.911Z,3.50
2017-10-24T06:08:57.405Z,3.60
2017-10-24T06:11:25.769Z,3.80
2017-10-24T06:13:53.387Z,3.20
2017-10-24T06:16:21.038Z,3.90
2017-10-24T06:18:48.658Z,9.50
2017-10-24T06:21:16.361Z,7.73
2017-10-24T06:23:43.972Z,2.73
2017-10-24T06:26:12.389Z,3.83
2017-10-24T06:28:40.020Z,4.30
2017-10-24T06:31:08.440Z,3.00
2017-10-24T06:33:36.055Z,6.30
2017-10-24T06:36:04.500Z,2.70
2017-10-24T06:38:32.155Z,10.17
2017-10-24T06:40:59.803Z,2.70
2017-10-24T06:43:27.502Z,3.07
2017-10-24T06:45:55.899Z,5.23
2017-10-24T06:48:24.319Z,4.07
2017-10-24T06:50:52.707Z,5.23
2017-10-24T06:53:20.403Z,3.40
2017-10-24T06:55:48.784Z,2.73
2017-10-24T06:58:17.548Z,4.30
2017-10-24T07:00:45.219Z,3.07
2017-10-24T07:03:13.648Z,2.47
2017-10-24T07:05:41.367Z,2.67
2017-10-24T07:08:09.855Z,4.10
2017-10-24T07:10:38.357Z,2.77
2017-10-24T07:13:06.043Z,2.83
2017-10-24T07:15:33.660Z,2.13
2017-10-24T07:18:01.400Z,1.97
2017-10-24T07:20:29.139Z,2.67
2017-10-24T07:22:56.804Z,2.40
2017-10-24T07:25:24.452Z,6.93
2017-10-24T07:27:52.098Z,5.00
2017-10-24T07:30:19.745Z,3.70
2017-10-24T07:32:47.352Z,6.47
2017-10-24T07:35:15.033Z,2.10
2017-10-24T07:37:42.667Z,2.10
2017-10-24T07:40:10.285Z,1.90
2017-10-24T07:42:37.965Z,1.87
2017-10-24T07:45:05.572Z,2.20
2017-10-24T07:47:33.224Z,2.80
2017-10-24T07:50:01.621Z,2.87
2017-10-24T07:52:29.385Z,4.30
2017-10-24T07:54:57.019Z,2.97
2017-10-24T07:57:25.439Z,2.80
2017-10-24T07:59:53.095Z,3.63
2017-10-24T08:02:20.762Z,2.40
2017-10-24T08:04:48.424Z,3.23
2017-10-24T08:07:16.078Z,2.10
2017-10-24T08:09:43.747Z,3.30
2017-10-24T08:12:13.524Z,2.43
2017-10-24T08:14:41.191Z,3.80
2017-10-24T08:17:09.704Z,1.70
2017-10-24T08:19:37.352Z,6.80
2017-10-24T08:22:05.053Z,4.00
2017-10-24T08:24:32.735Z,3.33
2017-10-24T08:27:01.285Z,2.00
2017-10-24T08:29:28.919Z,1.70
2017-10-24T08:31:56.551Z,1.20
2017-10-24T08:34:25.014Z,1.70
2017-10-24T08:36:53.481Z,2.73
2017-10-24T08:39:21.175Z,6.37
2017-10-24T08:41:48.885Z,2.07
2017-10-24T08:44:16.560Z,2.40
2017-10-24T08:46:44.260Z,2.00
2017-10-24T08:49:11.883Z,3.63
2017-10-24T08:51:39.587Z,2.93
2017-10-24T08:54:07.220Z,2.17
2017-10-24T08:56:35.694Z,1.50
2017-10-24T08:59:03.378Z,3.40
2017-10-24T09:01:31.106Z,2.70
2017-10-24T09:03:58.760Z,2.53
2017-10-24T09:06:42.149Z,1.97
2017-10-24T09:12:22.410Z,2.27
2017-10-24T09:14:50.044Z,6.07
2017-10-24T09:17:34.049Z,2.60
2017-10-24T09:20:01.742Z,2.23
2017-10-24T09:22:29.692Z,4.20
2017-10-24T09:24:57.380Z,1.93
2017-10-24T09:27:26.104Z,2.80
2017-10-24T09:29:54.541Z,2.23
2017-10-24T09:32:23.039Z,1.97
2017-10-24T09:34:50.767Z,1.90
2017-10-24T09:37:19.228Z,1.63
2017-10-24T09:39:46.899Z,3.47
2017-10-24T09:42:14.656Z,1.87
2017-10-24T09:44:42.334Z,2.20
2017-10-24T09:47:10.791Z,2.20
2017-10-24T09:49:38.460Z,2.27
2017-10-24T09:52:06.188Z,1.80
2017-10-24T09:54:43.064Z,2.37
2017-10-24T09:57:10.749Z,2.17
2017-10-24T09:59:38.405Z,1.57
2017-10-24T10:02:06.105Z,2.30
2017-10-24T10:04:33.819Z,2.00
2017-10-24T10:07:02.433Z,3.97
2017-10-24T10:09:30.140Z,1.33
2017-10-24T10:11:57.766Z,2.40
2017-10-24T10:14:26.268Z,1.83
2017-10-24T10:16:53.898Z,1.90
2017-10-24T10:19:22.004Z,2.10
2017-10-24T10:21:51.376Z,7.90
2017-10-24T10:24:28.768Z,2.13
2017-10-24T10:26:57.188Z,3.50
2017-10-24T10:29:24.875Z,1.70
2017-10-24T10:31:52.617Z,5.70
2017-10-24T10:34:20.346Z,1.97
2017-10-24T10:36:48.031Z,4.67
2017-10-24T10:39:16.497Z,1.43
2017-10-24T10:41:44.196Z,1.83
2017-10-24T10:44:11.844Z,1.73
2017-10-24T10:46:39.505Z,1.30
2017-10-24T10:49:07.181Z,1.77
2017-10-24T10:51:34.839Z,1.83
2017-10-24T10:54:02.475Z,1.77
2017-10-24T10:56:30.114Z,1.17
2017-10-24T10:58:57.836Z,2.83
2017-10-24T11:01:25.527Z,1.33
2017-10-24T11:03:53.192Z,1.40
2017-10-24T11:06:20.920Z,1.70
2017-10-24T11:08:49.320Z,3.67
2017-10-24T11:11:18.593Z,1.60
2017-10-24T11:13:46.236Z,1.77
2017-10-24T11:16:14.717Z,1.17
2017-10-24T11:18:42.341Z,1.43
2017-10-24T11:21:09.965Z,1.60
2017-10-24T11:23:38.407Z,3.10
2017-10-24T11:26:06.091Z,1.60
2017-10-24T11:28:33.777Z,2.23
2017-10-24T11:31:02.185Z,1.90
2017-10-24T11:33:30.684Z,1.83
2017-10-24T11:35:58.338Z,2.40
2017-10-24T11:38:26.011Z,2.13
2017-10-24T11:40:53.695Z,5.53
2017-10-24T11:43:22.101Z,2.07
2017-10-24T11:45:49.771Z,3.83
2017-10-24T11:48:17.400Z,2.20
2017-10-24T11:50:45.843Z,1.70
2017-10-24T11:53:13.464Z,1.60
2017-10-24T11:55:41.089Z,3.03
2017-10-24T11:58:08.965Z,2.40
2017-10-24T12:00:37.425Z,1.80
2017-10-24T12:03:05.186Z,3.63
2017-10-24T12:05:32.925Z,1.30
2017-10-24T12:08:00.660Z,2.70
2017-10-24T12:10:28.352Z,1.67
2017-10-24T12:12:56.711Z,3.30
2017-10-24T12:15:24.514Z,1.20
2017-10-24T12:17:52.172Z,1.60
2017-10-24T12:20:19.893Z,3.83
2017-10-24T12:22:47.614Z,1.40
2017-10-24T12:25:16.234Z,1.53
2017-10-24T12:27:43.913Z,1.37
2017-10-24T12:30:11.615Z,2.03
2017-10-24T12:32:40.096Z,4.80
2017-10-24T12:35:08.527Z,1.80
2017-10-24T12:37:36.247Z,2.00
2017-10-24T12:40:04.679Z,1.70
2017-10-24T12:42:33.036Z,3.33
2017-10-24T12:45:01.600Z,2.13
2017-10-24T12:47:29.266Z,1.93
2017-10-24T12:50:02.681Z,1.83
2017-10-24T12:52:30.362Z,2.97
2017-10-24T12:54:58.063Z,5.80
2017-10-24T12:57:31.315Z,6.00
2017-10-24T12:59:59.036Z,1.20
2017-10-24T13:02:26.699Z,2.70
2017-10-24T13:04:54.915Z,2.33
2017-10-24T13:07:22.583Z,1.80
2017-10-24T13:09:50.332Z,5.70
2017-10-24T13:12:18.063Z,3.43
2017-10-24T13:14:45.746Z,1.50
2017-10-24T13:17:13.494Z,1.33
2017-10-24T13:19:41.192Z,1.20
2017-10-24T13:22:08.997Z,2.10
2017-10-24T13:24:36.630Z,1.00
2017-10-24T13:27:04.286Z,2.00
2017-10-24T13:29:32.739Z,1.13
2017-10-24T13:32:00.420Z,1.50
2017-10-24T13:34:28.881Z,3.83
2017-10-24T13:36:56.668Z,3.73
2017-10-24T13:39:25.236Z,1.33
2017-10-24T13:41:53.655Z,0.93
2017-10-24T13:44:21.291Z,1.47
2017-10-24T13:46:49.765Z,3.57
2017-10-24T13:49:18.185Z,1.10
2017-10-24T13:51:45.990Z,1.40
2017-10-24T13:54:13.655Z,4.37
2017-10-24T13:56:41.287Z,5.07
2017-10-24T13:59:09.006Z,1.50
2017-10-24T14:01:36.713Z,3.23
2017-10-24T14:04:04.448Z,1.73
2017-10-24T14:06:37.797Z,5.03
2017-10-24T14:09:11.083Z,2.03
2017-10-24T14:11:38.727Z,1.00
2017-10-24T14:14:06.377Z,1.50
2017-10-24T14:16:35.934Z,1.87
2017-10-24T14:19:03.828Z,2.20
2017-10-24T14:21:31.468Z,4.40
2017-10-24T14:23:59.091Z,1.20
2017-10-24T14:26:26.739Z,1.27
2017-10-24T14:28:54.350Z,3.50
2017-10-24T14:31:22.100Z,2.33
2017-10-24T14:33:50.540Z,1.33
2017-10-24T14:36:18.201Z,1.50
2017-10-24T14:38:46.309Z,6.93
2017-10-24T14:41:14.813Z,1.50
2017-10-24T14:43:42.602Z,4.33
2017-10-24T14:46:10.215Z,1.27
2017-10-24T14:48:37.893Z,2.20
2017-10-24T14:51:05.690Z,1.10
2017-10-24T14:53:33.321Z,0.90
2017-10-24T14:56:00.986Z,1.77
2017-10-24T14:58:28.665Z,5.00
2017-10-24T15:00:56.497Z,3.53
2017-10-24T15:03:24.200Z,2.47
2017-10-24T15:05:51.848Z,1.20
2017-10-24T15:08:19.522Z,1.20
2017-10-24T15:10:47.266Z,1.90
2017-10-24T15:13:14.954Z,2.23
2017-10-24T15:15:42.612Z,2.50
2017-10-24T15:18:10.373Z,1.47
2017-10-24T15:20:38.020Z,3.13
2017-10-24T15:23:06.703Z,4.20
2017-10-24T15:25:34.421Z,0.93
2017-10-24T15:28:02.050Z,2.00
2017-10-24T15:30:29.732Z,1.43
2017-10-24T15:32:58.147Z,2.63
2017-10-24T15:35:25.921Z,1.33
2017-10-24T15:37:53.568Z,3.43
2017-10-24T15:40:21.211Z,1.37
2017-10-24T15:42:48.913Z,1.20
2017-10-24T15:45:16.582Z,1.33
2017-10-24T15:47:44.230Z,4.00
2017-10-24T15:50:11.864Z,1.03
2017-10-24T15:52:39.551Z,2.20
2017-10-24T15:55:07.213Z,1.53
2017-10-24T15:57:34.837Z,2.20
2017-10-24T16:00:02.484Z,1.77
2017-10-24T16:02:30.891Z,2.40
2017-10-24T16:04:58.587Z,1.60
2017-10-24T16:07:26.223Z,1.87
2017-10-24T16:09:53.890Z,1.20
2017-10-24T16:12:21.517Z,2.17
2017-10-24T16:14:49.146Z,3.23
2017-10-24T16:17:17.635Z,4.30
2017-10-24T16:19:45.276Z,3.00
2017-10-24T16:22:12.951Z,3.20
2017-10-24T16:24:41.348Z,2.40
2017-10-24T16:27:09.041Z,3.07
2017-10-24T16:29:36.660Z,2.50
2017-10-24T16:32:06.107Z,1.63
2017-10-24T16:34:33.937Z,1.20
2017-10-24T16:37:01.615Z,4.03
2017-10-24T16:39:29.268Z,1.90
2017-10-24T16:41:57.656Z,2.07
2017-10-24T16:44:25.375Z,2.10
2017-10-24T16:46:53.751Z,7.37
2017-10-24T16:49:22.145Z,3.30
2017-10-24T16:51:49.796Z,5.37
2017-10-24T16:54:18.219Z,3.30
2017-10-24T16:56:45.863Z,2.40
2017-10-24T16:59:13.493Z,4.07
2017-10-24T17:01:41.212Z,3.30
2017-10-24T17:04:08.820Z,3.63
2017-10-24T17:06:36.429Z,3.00
2017-10-24T17:09:04.199Z,3.67
2017-10-24T17:11:31.855Z,5.27
2017-10-24T17:13:59.508Z,2.10
2017-10-24T17:16:27.132Z,4.00
2017-10-24T17:18:55.412Z,5.13
2017-10-24T17:21:23.071Z,3.73
2017-10-24T17:23:50.679Z,2.40
2017-10-24T17:26:18.319Z,2.60
2017-10-24T17:28:45.952Z,1.40
2017-10-24T17:31:13.604Z,4.57
2017-10-24T17:33:41.228Z,2.70
2017-10-24T17:36:10.389Z,1.90
2017-10-24T17:38:38.021Z,3.70
2017-10-24T17:41:05.690Z,3.27
2017-10-24T17:43:33.332Z,6.73
2017-10-24T17:46:01.211Z,4.63
2017-10-24T17:48:29.636Z,15.93
2017-10-24T17:50:57.290Z,11.90
2017-10-24T17:53:25.428Z,7.17
2017-10-24T17:55:53.111Z,5.90
2017-10-24T17:58:20.767Z,8.30
2017-10-24T18:00:48.634Z,4.67
2017-10-24T18:03:16.478Z,6.03
2017-10-24T18:05:44.303Z,4.83
2017-10-24T18:08:12.056Z,5.43
2017-10-24T18:10:40.112Z,8.07
2017-10-24T18:13:07.811Z,9.67
2017-10-24T18:15:35.570Z,6.67
2017-10-24T18:18:03.362Z,5.43
2017-10-24T18:20:31.147Z,11.07
2017-10-24T18:22:58.928Z,8.40
2017-10-24T18:25:26.745Z,8.23
2017-10-24T18:27:54.547Z,6.80
2017-10-24T18:30:22.380Z,4.53
2017-10-24T18:32:50.242Z,5.90
2017-10-24T18:35:18.112Z,9.27
2017-10-24T18:37:46.112Z,8.30
2017-10-24T18:40:13.977Z,6.57
2017-10-24T18:42:41.861Z,8.20
2017-10-24T18:45:11.760Z,18.80
2017-10-24T18:47:39.476Z,8.00
2017-10-24T18:50:07.241Z,8.07
2017-10-24T18:52:35.060Z,6.27
2017-10-24T18:55:03.557Z,5.20
2017-10-24T18:57:31.367Z,6.70
2017-10-24T18:59:59.098Z,6.43
2017-10-24T19:02:26.893Z,5.63
2017-10-24T19:04:54.659Z,4.30
2017-10-24T19:07:22.576Z,8.00
2017-10-24T19:09:50.391Z,5.70
2017-10-24T19:12:18.311Z,3.70
2017-10-24T19:14:46.350Z,5.73
2017-10-24T19:17:14.943Z,8.37
2017-10-24T19:19:43.420Z,7.87
2017-10-24T19:22:11.900Z,10.70
2017-10-24T19:24:39.597Z,5.70
2017-10-24T19:27:07.342Z,6.03
2017-10-24T19:29:35.035Z,12.20
2017-10-24T19:32:02.891Z,16.73
2017-10-24T19:34:30.783Z,7.97
2017-10-24T19:36:58.595Z,9.60
2017-10-24T19:39:26.466Z,19.13
2017-10-24T19:41:54.304Z,17.83
2017-10-24T19:44:22.151Z,18.33
2017-10-24T19:46:49.918Z,13.73
2017-10-24T19:49:18.520Z,7.40
2017-10-24T19:51:47.000Z,9.70
2017-10-24T19:54:15.447Z,11.90
2017-10-24T19:56:43.195Z,11.13
2017-10-24T19:59:11.280Z,9.30
2017-10-24T20:01:39.060Z,9.00
2017-10-24T20:04:07.541Z,8.97
2017-10-24T20:06:36.021Z,8.97
2017-10-24T20:09:04.511Z,6.10
2017-10-24T20:11:32.144Z,11.30
2017-10-24T20:13:59.929Z,7.17
2017-10-24T20:16:27.655Z,10.83
2017-10-24T20:18:55.419Z,11.33
2017-10-24T20:21:23.142Z,9.10
2017-10-24T20:23:50.990Z,12.50
2017-10-24T20:26:18.792Z,11.17
2017-10-24T20:28:46.924Z,11.17
2017-10-24T20:31:15.342Z,11.47
2017-10-24T20:33:43.416Z,10.37
2017-10-24T20:36:11.477Z,9.60
2017-10-24T20:38:39.746Z,7.87
2017-10-24T20:41:07.585Z,7.63
2017-10-24T20:43:35.744Z,9.73
2017-10-24T20:46:04.312Z,8.17
2017-10-24T20:48:32.956Z,10.00
2017-10-24T20:51:00.764Z,23.83
2017-10-24T20:53:29.161Z,7.80
2017-10-24T20:55:57.022Z,6.97
2017-10-24T20:58:24.964Z,9.17
2017-10-24T21:00:52.807Z,6.60
2017-10-24T21:03:20.484Z,11.43
2017-10-24T21:05:48.324Z,14.30
2017-10-24T21:08:16.093Z,19.93
2017-10-24T21:10:44.056Z,17.60
2017-10-24T21:13:11.868Z,22.43
2017-10-24T21:15:39.744Z,12.57
2017-10-24T21:18:07.759Z,15.33
2017-10-24T21:20:35.802Z,10.60
2017-10-24T21:23:03.691Z,12.33
2017-10-24T21:25:31.656Z,13.77
2017-10-24T21:27:59.648Z,13.97
2017-10-24T21:30:27.700Z,9.93
2017-10-24T21:32:56.015Z,12.50
2017-10-24T21:35:24.006Z,11.10
2017-10-24T21:37:52.091Z,13.53
2017-10-24T21:40:19.930Z,15.20
2017-10-24T21:42:47.928Z,10.23
2017-10-24T21:45:16.096Z,9.27
2017-10-24T21:47:44.104Z,13.20
2017-10-24T21:50:12.049Z,9.43
2017-10-24T21:52:40.152Z,17.03
2017-10-24T21:55:08.188Z,6.83
2017-10-24T21:57:35.802Z,7.73
2017-10-24T22:00:03.540Z,6.07
2017-10-24T22:02:31.989Z,7.80
2017-10-24T22:04:59.645Z,4.83
2017-10-24T22:07:27.299Z,10.13
2017-10-24T22:09:54.973Z,4.83
2017-10-24T22:12:22.674Z,4.87
2017-10-24T22:14:50.328Z,7.90
2017-10-24T22:17:18.810Z,4.63
2017-10-24T22:19:46.440Z,4.30
2017-10-24T22:22:14.090Z,3.97
2017-10-24T22:24:41.719Z,3.70
2017-10-24T22:27:09.366Z,3.20
2017-10-24T22:29:37.039Z,3.73
2017-10-24T22:32:04.686Z,5.53
2017-10-24T22:34:32.395Z,3.60
2017-10-24T22:37:00.007Z,7.90
2017-10-24T22:39:27.663Z,5.80
2017-10-24T22:41:55.289Z,2.50
2017-10-24T22:44:22.955Z,3.90
2017-10-24T22:46:51.344Z,3.70
2017-10-24T22:49:19.797Z,3.07
2017-10-24T22:51:47.408Z,2.90
2017-10-24T22:54:15.038Z,3.37
2017-10-24T22:56:43.468Z,3.73
2017-10-24T22:59:11.086Z,3.67
2017-10-24T23:01:38.754Z,2.93
2017-10-24T23:04:06.364Z,4.73
2017-10-24T23:06:34.058Z,2.20
2017-10-24T23:09:02.452Z,3.90
2017-10-24T23:11:30.079Z,2.60
2017-10-24T23:13:57.727Z,2.20
2017-10-24T23:16:26.154Z,2.10
2017-10-24T23:18:54.686Z,4.10
2017-10-24T23:21:22.335Z,3.50
2017-10-24T23:23:50.139Z,6.60
2017-10-24T23:26:18.530Z,7.50
2017-10-24T23:28:46.143Z,4.83
2017-10-24T23:31:13.809Z,3.33
2017-10-24T23:33:41.438Z,6.80
2017-10-24T23:36:09.106Z,9.93
2017-10-24T23:38:36.780Z,8.10
2017-10-24T23:41:04.508Z,5.33
2017-10-24T23:43:32.132Z,6.20
2017-10-24T23:46:00.511Z,6.40
2017-10-24T23:48:28.984Z,4.20
2017-10-24T23:50:57.358Z,2.13
2017-10-24T23:53:25.783Z,1.87
2017-10-24T23:55:53.425Z,3.07
2017-10-24T23:58:21.115Z,3.83
